• Join FlightAware (Why Join?)
  • Login
  • US Flag 
08:30PM EDT


 

Airport Tracker/Info


-or-


 

Live Flight TrackerFlight Track Log ✈ N330V ✈ 14-Jul-2013 ✈ KMLI - KVLL

Flight Track Log - Related Links

Times and Time Zones

All times are in EDT time to prevent confusion due to time zone crossing. See the N330V flight status page for this flight to view local times or setup timezone preferences in your user account.

Time Position Orientation Groundspeed Altitude Reporting Facility
EDT Latitude Longitude Course Direction KTS MPH feet Rate Location/Type
02:19PM 41.4706 -90.4239 56° Northeast 128 147 2,900  Level Chicago Center
02:20PM 41.5056 -90.3842 40° Northeast 167 192 3,900 1,080 Climbing Chicago Center
02:21PM 41.5308 -90.3367 55° Northeast 162 186 5,200 1,080 Climbing Chicago Center
02:22PM 41.5606 -90.2767 56° Northeast 162 186 6,200 960 Climbing Chicago Center
02:23PM 41.6865 -90.1991 41° Northeast  Level FlightAware Approximate
02:23PM 41.5914 -90.2356 45° Northeast 162 186 7,200  Level Chicago Center
02:24PM 41.7266 -90.1469 56° Northeast  Level FlightAware Approximate
02:24PM 41.6342 -90.1936 36° Northeast 179 206 8,700  Level Chicago Center
02:25PM 41.6750 -90.1431 43° Northeast 192 221 9,700 960 Climbing Chicago Center
02:26PM 41.7153 -90.0975 40° Northeast 190 219 10,700 960 Climbing Chicago Center
02:27PM 41.7575 -90.0483 41° Northeast 197 227 11,800 960 Climbing Chicago Center
02:28PM 41.7981 -89.9997 42° Northeast 196 226 12,700 660 Climbing Chicago Center
02:29PM 41.8178 -89.9344 68° East 186 214 13,200 720 Climbing Chicago Center
02:30PM 41.8214 -89.8556 86° East 185 213 14,300 840 Climbing Chicago Center
02:31PM 41.8281 -89.7822 83° East 198 228 15,000 720 Climbing Chicago Center
02:32PM 41.8422 -89.7100 75° East 200 230 15,800 840 Climbing Chicago Center
02:33PM 41.8647 -89.6317 69° East 189 217 16,800 720 Climbing Chicago Center
02:34PM 41.8786 -89.5644 74° East 188 216 17,300 420 Climbing Chicago Center
02:35PM 41.8908 -89.4975 76° East 186 214 17,700 300 Climbing Chicago Center
02:36PM 41.9039 -89.4258 76° East 195 224 18,000 480 Climbing Chicago Center
02:37PM 41.9161 -89.3558 77° East 196 226 18,700 480 Climbing Chicago Center
02:38PM 41.9328 -89.2725 75° East 193 222 19,000 120 Climbing Chicago Center
02:39PM 41.9461 -89.1969 77° East 206 237 19,000  Level Chicago Center
02:40PM 41.9606 -89.1200 76° East 213 245 19,000  Level Chicago Center
02:41PM 41.9775 -89.0433 73° East 216 249 19,000  Level Chicago Center
02:42PM 41.9933 -88.9669 74° East 213 245 19,000  Level Chicago Center
02:44PM 42.0086 -88.8889 75° East 217 250 19,000  Level Chicago Center
02:45PM 42.0244 -88.7967 77° East 213 245 19,000  Level Chicago Center
02:46PM 42.0386 -88.7197 76° East 214 246 19,000  Level Chicago Center
02:47PM 42.0528 -88.6417 76° East 216 249 19,000  Level Chicago Center
02:48PM 42.0692 -88.5636 74° East 217 250 19,000  Level Chicago Center
02:49PM 42.0831 -88.4856 76° East 217 250 19,000  Level Chicago Center
02:50PM 42.0992 -88.3936 77° East 213 245 19,000  Level Chicago Center
02:51PM 42.1136 -88.3147 76° East 217 250 19,000  Level Chicago Center
02:52PM 42.1275 -88.2358 77° East 217 250 19,000  Level Chicago Center
02:53PM 42.1425 -88.1572 76° East 218 251 19,000  Level Chicago Center
02:54PM 42.1556 -88.0772 78° East 218 251 19,000  Level Chicago Center
02:55PM 42.1614 -87.9822 85° East 214 246 19,000  Level Chicago Center
02:56PM 42.1667 -87.9017 85° East 216 249 19,000  Level Chicago Center
02:57PM 42.1717 -87.8208 85° East 218 251 19,000  Level Chicago Center
02:58PM 42.1781 -87.7397 84° East 219 252 19,000  Level Chicago Center
02:59PM 42.1911 -87.6600 78° East 220 253 19,000  Level Chicago Center
03:00PM 42.2067 -87.5792 75° East 223 257 19,000  Level Chicago Center
03:01PM 42.2217 -87.4825 78° East 221 254 19,000  Level Chicago Center
03:02PM 42.2353 -87.4031 77° East 219 252 19,000  Level Chicago Center
03:03PM 42.2517 -87.3233 74° East 221 254 19,000  Level Chicago Center
03:04PM 42.2675 -87.2442 75° East 221 254 19,000  Level Chicago Center
03:05PM 42.2825 -87.1647 76° East 220 253 19,000  Level Chicago Center
03:06PM 42.3006 -87.0697 76° East 219 252 19,000  Level Chicago Center
03:07PM 42.3142 -86.9897 77° East 219 252 19,000  Level Chicago Center
03:08PM 42.3294 -86.9092 76° East 222 255 19,000  Level Chicago Center
03:09PM 42.3436 -86.8275 77° East 225 259 19,000  Level Chicago Center
03:10PM 42.3578 -86.7472 77° East 222 255 19,000  Level Chicago Center
03:11PM 42.3761 -86.6569 75° East 224 258 19,000  Level Chicago Center
03:12PM 42.3914 -86.5761 76° East 223 257 19,000  Level Chicago Center
03:14PM 42.4058 -86.4947 76° East 224 258 19,000  Level Chicago Center
03:15PM 42.4186 -86.4144 78° East 221 254 19,000  Level Chicago Center
03:16PM 42.4378 -86.3175 75° East 223 257 19,000  Level Chicago Center
03:17PM 42.4519 -86.2375 76° East 221 254 19,000  Level Chicago Center
03:18PM 42.4672 -86.1572 76° East 222 255 19,000  Level Chicago Center
03:19PM 42.4803 -86.0756 78° East 223 257 19,000  Level Chicago Center
03:20PM 42.4936 -85.9939 77° East 223 257 19,000  Level Chicago Center
03:21PM 42.5117 -85.8958 76° East 225 259 19,000  Level Chicago Center
03:22PM 42.5269 -85.8147 76° East 224 258 19,000  Level Chicago Center
03:23PM 42.5411 -85.7339 77° East 222 255 19,000  Level Chicago Center
03:24PM 42.5539 -85.6497 78° East 227 261 19,000  Level Chicago Center
03:25PM 42.5686 -85.5664 76° East 228 262 19,000  Level Chicago Center
03:26PM 42.5867 -85.4650 76° East 231 266 19,000  Level Chicago Center
03:27PM 42.6022 -85.3808 76° East 232 267 19,000  Level Chicago Center
03:28PM 42.6164 -85.2969 77° East 231 266 19,000  Level Chicago Center
03:29PM 42.6303 -85.2114 78° East 232 267 19,000  Level Chicago Center
03:30PM 42.6444 -85.1272 77° East 230 265 19,000  Level Chicago Center
03:31PM 42.6592 -85.0425 77° East 231 266 19,000  Level Chicago Center
03:32PM 42.6767 -84.9425 77° East 229 264 19,000 -420 Level Chicago Center
03:33PM 42.6911 -84.8511 78° East 244 281 18,200 -660 Descending Chicago Center
03:34PM 42.7044 -84.7547 79° East 259 298 17,700 -660 Descending Chicago Center
03:35PM 42.7214 -84.6589 76° East 262 302 16,900 -780 Descending Chicago Center
03:36PM 42.7219 -84.5625 90° East 258 297 16,200 -960 Descending Chicago Center
03:37PM 42.7133 -84.4486 96° East 253 291 15,000 -1,020 Descending Chicago Center
03:38PM 42.7108 -84.3567 92° East 246 283 14,100 -960 Descending Chicago Center
03:39PM 42.7083 -84.3103 94° East 254 292 13,500 -1,440 Descending Cleveland Center
03:39PM 42.7103 -84.2483 88° East 252 290 12,500 -1,320 Descending Cleveland Center
03:41PM 42.7072 -84.1464 92° East 243 280 11,300 -1,080 Descending Cleveland Center